Ripley, New York
Current Conditions -  °F | °C
As of 4:55 PM on Monday 20 Oct 2014 (Local Time) from KJHW Reporting Station
Overcast Overcast  
Wind Chill: 52°   Ceiling: 9000
Heat Index: 52°   Visibility: 10mi
Dew Point: 39°   Wind: 9mph
Humidity: 62%   Direction: 200°SSW
Pressure: 29.84"   Gusts: NA
Location:  42.27°N, 79.71°W
Report Text: KJHW 202055Z AUTO 20008KT 10SM SCT070 OVC090 11/04 A2984 RMK AO1 57007
Loading
Personal Weather Stations






























Interactive Weather Map
Tropical Storm Tracking
New forecast layout! Learn more

10-Day Weather Forecast

Advertisements
Track Severe Weather on mobile